Time;durP1;ratioP1;P1;durP2;ratioP2;P2;SDS_P1;SDS_P2;PMS_P1;PMS_P2;Temp;Humidity;BMP_temperature;BMP_pressure;BME280_temperature;BME280_humidity;BME280_pressure;Samples;Min_cycle;Max_cycle;Signal;HPM_P1;HPM_P2
2021/06/15 00:00:48;;;;;;;5.63;3.07;;;;;;;15.64;62.94;96520.47;5037160;28;20040;-78
2021/06/15 00:03:14;;;;;;;7.13;3.10;;;;;;;15.67;63.62;96524.59;5009175;28;20021;-78
2021/06/15 00:05:40;;;;;;;6.60;2.90;;;;;;;15.65;63.54;96527.38;5043123;28;20032;-78
2021/06/15 00:08:06;;;;;;;6.07;2.73;;;;;;;15.64;63.38;96519.63;5032817;28;20068;-78
2021/06/15 00:10:32;;;;;;;6.23;3.00;;;;;;;15.55;64.51;96521.53;5018847;28;20033;-78
2021/06/15 00:12:58;;;;;;;6.20;2.83;;;;;;;15.48;65.28;96518.00;5020626;28;20648;-78
2021/06/15 00:15:25;;;;;;;4.67;2.53;;;;;;;15.40;65.41;96521.56;5021186;28;20557;-78
2021/06/15 00:17:51;;;;;;;6.97;3.07;;;;;;;15.38;65.28;96517.44;5033765;28;20009;-78
2021/06/15 00:20:18;;;;;;;10.60;3.07;;;;;;;15.40;65.45;96518.09;5014437;28;20045;-78
2021/06/15 00:22:44;;;;;;;7.87;3.37;;;;;;;15.33;65.55;96513.50;5012815;28;20068;-78
2021/06/15 00:25:11;;;;;;;6.60;2.90;;;;;;;15.36;64.56;96514.13;5007995;28;20037;-78
2021/06/15 00:27:37;;;;;;;6.53;3.07;;;;;;;15.31;65.15;96510.22;5014776;28;20051;-78
2021/06/15 00:30:05;;;;;;;5.63;2.70;;;;;;;15.35;64.98;96504.56;5035528;28;20570;-78
2021/06/15 00:32:30;;;;;;;7.30;2.87;;;;;;;15.36;65.07;96506.19;5015085;28;20112;-78
2021/06/15 00:34:56;;;;;;;5.67;3.10;;;;;;;15.32;65.15;96505.72;5015499;28;20300;-78
2021/06/15 00:37:22;;;;;;;7.07;2.83;;;;;;;15.19;65.93;96506.38;5006167;28;20135;-77
2021/06/15 00:39:48;;;;;;;6.43;3.07;;;;;;;15.21;65.52;96504.34;5014409;28;20040;-78
2021/06/15 00:42:15;;;;;;;6.97;2.97;;;;;;;15.12;65.85;96505.44;5019173;28;20053;-78
2021/06/15 00:44:41;;;;;;;5.97;3.00;;;;;;;15.12;65.61;96492.19;5036893;28;20033;-77
2021/06/15 00:47:07;;;;;;;6.70;3.37;;;;;;;15.05;66.28;96496.56;5039405;28;20526;-78
2021/06/15 00:49:35;;;;;;;4.77;2.90;;;;;;;15.12;65.42;96492.19;5012903;28;20060;-78
2021/06/15 00:52:04;;;;;;;8.83;3.10;;;;;;;15.08;66.46;96493.56;4995518;28;20083;-78
2021/06/15 00:54:30;;;;;;;7.33;3.23;;;;;;;15.04;66.43;96484.34;5019627;28;20501;-78
2021/06/15 00:56:56;;;;;;;6.83;3.10;;;;;;;15.04;65.51;96485.16;5020617;28;20025;-78
2021/06/15 00:59:21;;;;;;;5.67;3.27;;;;;;;15.06;65.91;96485.00;5016143;28;20033;-78
2021/06/15 01:01:48;;;;;;;11.03;3.50;;;;;;;15.01;66.37;96485.50;5016511;28;20044;-78
2021/06/15 01:04:16;;;;;;;6.53;2.97;;;;;;;14.93;65.33;96480.31;5010854;28;20026;-78
2021/06/15 01:06:58;;;;;;;7.07;3.50;;;;;;;14.85;65.63;96477.72;5009690;28;20022;-78
2021/06/15 01:09:35;;;;;;;6.23;2.97;;;;;;;14.90;64.79;96477.19;5023175;28;20048;-78
2021/06/15 01:12:22;;;;;;;6.13;2.67;;;;;;;14.90;65.37;96483.31;5020719;28;20517;-78
2021/06/15 01:15:10;;;;;;;5.93;3.20;;;;;;;14.81;66.86;96487.03;5013921;28;20053;-78
2021/06/15 01:17:45;;;;;;;6.37;2.73;;;;;;;14.75;66.31;96485.91;5023751;28;20036;-78
2021/06/15 01:20:27;;;;;;;5.70;2.90;;;;;;;14.73;66.25;96485.28;5004534;28;20124;-78
2021/06/15 01:23:12;;;;;;;7.57;3.13;;;;;;;14.69;65.06;96476.06;5023289;28;20037;-78
2021/06/15 01:25:56;;;;;;;6.03;2.77;;;;;;;14.69;64.85;96486.66;5020986;28;20025;-78
2021/06/15 01:28:32;;;;;;;4.90;1.97;;;;;;;14.63;64.27;96484.72;5013673;28;20033;-77
2021/06/15 01:31:02;;;;;;;4.97;2.80;;;;;;;14.60;63.97;96485.06;5005424;28;20048;-78
2021/06/15 01:33:32;;;;;;;5.97;2.90;;;;;;;14.58;63.61;96485.22;4991818;28;20029;-77
2021/06/15 01:36:00;;;;;;;7.27;2.80;;;;;;;14.59;63.66;96481.59;5028641;28;20041;-78
2021/06/15 01:38:34;;;;;;;7.80;2.90;;;;;;;14.59;63.89;96483.44;5019376;28;20422;-78
2021/06/15 01:41:13;;;;;;;4.87;2.60;;;;;;;14.51;64.36;96486.13;5008628;28;20037;-77
2021/06/15 01:43:43;;;;;;;9.27;3.03;;;;;;;14.39;64.30;96488.34;5002285;28;20482;-77
2021/06/15 01:46:12;;;;;;;7.67;2.73;;;;;;;14.39;64.89;96480.41;5018063;28;20119;-77
2021/06/15 01:48:46;;;;;;;7.97;2.87;;;;;;;14.38;65.01;96476.94;5024382;28;20446;-77
2021/06/15 01:51:15;;;;;;;4.82;2.28;;;;;;;14.41;65.08;96485.50;5011129;28;20053;-78
2021/06/15 01:53:50;;;;;;;7.37;3.63;;;;;;;14.26;64.90;96475.72;5018766;28;20025;-77
2021/06/15 01:56:23;;;;;;;4.80;2.43;;;;;;;14.29;65.08;96482.47;5027672;28;20022;-77
2021/06/15 01:58:57;;;;;;;4.53;2.50;;;;;;;14.23;64.91;96485.81;5016866;28;20734;-78
2021/06/15 02:01:28;;;;;;;5.00;2.70;;;;;;;14.13;65.52;96478.94;5020943;28;20587;-78
2021/06/15 02:03:58;;;;;;;5.60;2.90;;;;;;;14.14;66.04;96479.75;5024744;28;20052;-78
2021/06/15 02:06:26;;;;;;;6.03;3.07;;;;;;;13.95;68.42;96481.03;5015078;28;20720;-77
2021/06/15 02:08:55;;;;;;;8.33;3.70;;;;;;;13.75;69.45;96479.81;5027879;28;20091;-78
2021/06/15 02:11:41;;;;;;;8.17;3.90;;;;;;;13.80;69.23;96473.00;5014635;28;20063;-79
2021/06/15 02:14:34;;;;;;;8.38;3.53;;;;;;;13.93;67.91;96471.63;4998403;28;20140;-78
2021/06/15 02:17:27;;;;;;;6.20;3.28;;;;;;;13.84;68.52;96469.00;5017472;28;20025;-78
2021/06/15 02:20:16;;;;;;;5.00;3.07;;;;;;;13.86;68.68;96469.69;5011669;28;20125;-78
2021/06/15 02:22:46;;;;;;;7.47;3.27;;;;;;;13.88;68.61;96464.19;4998000;28;20037;-78
2021/06/15 02:25:17;;;;;;;9.43;4.00;;;;;;;13.87;68.16;96471.31;5004720;28;20443;-78
2021/06/15 02:27:43;;;;;;;9.53;3.80;;;;;;;13.88;68.50;96464.19;5008899;28;20030;-77
2021/06/15 02:30:12;;;;;;;7.50;3.13;;;;;;;13.91;67.65;96463.84;5034790;28;20013;-78
2021/06/15 02:32:49;;;;;;;11.93;3.40;;;;;;;13.95;67.30;96465.19;5012555;28;20049;-78
2021/06/15 02:35:20;;;;;;;8.87;3.00;;;;;;;13.98;66.98;96463.97;5021302;28;20399;-78
2021/06/15 02:38:10;;;;;;;5.77;3.60;;;;;;;14.09;66.07;96455.66;5012405;28;20402;-78
2021/06/15 02:40:36;;;;;;;7.47;2.93;;;;;;;14.08;65.49;96464.56;5004887;28;20387;-78
2021/06/15 02:43:04;;;;;;;7.70;3.50;;;;;;;14.01;66.16;96466.28;5002722;28;20434;-77
2021/06/15 02:45:33;;;;;;;5.47;2.93;;;;;;;13.97;66.37;96459.69;4995987;28;20091;-78
2021/06/15 02:48:05;;;;;;;4.37;2.70;;;;;;;14.01;66.27;96456.50;5001741;28;20106;-77
2021/06/15 02:50:39;;;;;;;8.33;3.03;;;;;;;14.04;65.43;96455.34;5008775;28;20088;-78
2021/06/15 02:53:14;;;;;;;7.73;3.50;;;;;;;14.05;65.52;96457.84;5012541;28;20068;-78
2021/06/15 02:55:46;;;;;;;7.63;3.00;;;;;;;14.08;65.39;96456.63;5024337;28;20041;-78
2021/06/15 02:58:12;;;;;;;5.57;2.73;;;;;;;14.07;64.99;96453.19;5016249;28;20033;-78
2021/06/15 03:00:38;;;;;;;8.57;3.27;;;;;;;14.10;64.30;96460.75;5031023;28;20022;-77
2021/06/15 03:03:07;;;;;;;6.17;2.70;;;;;;;14.07;64.68;96458.47;5007992;28;20037;-78
2021/06/15 03:05:34;;;;;;;7.33;2.60;;;;;;;14.05;64.82;96447.25;4996614;28;20021;-78
2021/06/15 03:08:00;;;;;;;9.40;3.33;;;;;;;13.98;65.88;96464.78;5002011;28;20040;-78
2021/06/15 03:10:28;;;;;;;8.17;3.23;;;;;;;13.95;67.21;96456.41;4997852;28;20018;-78
2021/06/15 03:13:09;;;;;;;7.37;3.90;;;;;;;13.79;69.52;96455.50;5028924;28;20063;-77
2021/06/15 03:15:53;;;;;;;5.80;3.60;;;;;;;13.74;69.85;96455.19;5015938;28;20032;-78
2021/06/15 03:18:46;;;;;;;6.73;3.50;;;;;;;13.59;70.71;96454.28;4995373;28;20033;-77
2021/06/15 03:21:18;;;;;;;7.97;3.33;;;;;;;13.58;71.09;96455.28;5015536;28;20087;-78
2021/06/15 03:24:05;;;;;;;7.93;3.60;;;;;;;13.50;71.44;96463.25;4997702;28;20401;-77
2021/06/15 03:26:53;;;;;;;7.87;3.57;;;;;;;13.44;71.61;96451.53;5016944;28;20092;-77
2021/06/15 03:29:26;;;;;;;8.97;4.53;;;;;;;13.36;72.42;96460.31;5012147;28;20033;-78
2021/06/15 03:31:59;;;;;;;7.47;3.88;;;;;;;13.32;72.36;96458.22;5014064;28;20486;-77
2021/06/15 03:34:30;;;;;;;7.83;4.50;;;;;;;13.36;71.85;96459.50;5017642;28;20378;-78
2021/06/15 03:36:58;;;;;;;7.17;3.93;;;;;;;13.31;72.15;96459.19;4995967;28;20041;-78
2021/06/15 03:39:30;;;;;;;8.70;4.00;;;;;;;13.28;71.94;96460.38;4999978;28;20025;-77
2021/06/15 03:42:00;;;;;;;8.13;4.40;;;;;;;13.38;72.19;96468.91;5018796;28;20036;-78
2021/06/15 03:44:27;;;;;;;6.83;3.90;;;;;;;13.46;71.69;96469.88;5003790;28;20041;-77
2021/06/15 03:46:55;;;;;;;10.53;4.73;;;;;;;13.42;72.19;96461.47;5039476;28;20110;-78
2021/06/15 03:49:22;;;;;;;6.93;4.70;;;;;;;13.41;72.08;96463.28;4990951;28;20038;-77
2021/06/15 03:51:59;;;;;;;7.57;4.57;;;;;;;13.46;70.84;96457.47;5036372;28;20024;-77
2021/06/15 03:54:27;;;;;;;7.73;4.20;;;;;;;13.52;69.92;96458.63;5030426;28;20138;-77
2021/06/15 03:56:55;;;;;;;9.20;3.67;;;;;;;13.67;69.23;96456.88;5027876;28;20036;-77
2021/06/15 03:59:32;;;;;;;8.77;3.70;;;;;;;13.71;68.09;96460.81;5019265;28;20091;-78
2021/06/15 04:02:01;;;;;;;6.83;3.80;;;;;;;13.83;68.22;96462.09;5009934;28;20524;-78
2021/06/15 04:04:31;;;;;;;8.03;3.37;;;;;;;13.87;67.93;96463.38;5005063;28;20950;-78
2021/06/15 04:06:58;;;;;;;7.27;3.80;;;;;;;13.91;68.33;96464.66;5002345;28;20025;-78
2021/06/15 04:09:27;;;;;;;7.43;3.70;;;;;;;13.91;69.25;96469.13;5030881;28;20029;-78
2021/06/15 04:11:58;;;;;;;6.23;3.77;;;;;;;13.81;70.84;96474.66;5011925;28;20394;-78
2021/06/15 04:14:26;;;;;;;8.87;4.50;;;;;;;13.77;71.75;96473.34;5020216;28;20104;-78
2021/06/15 04:16:53;;;;;;;8.07;4.53;;;;;;;13.58;72.14;96474.63;4997987;28;20041;-78
2021/06/15 04:19:23;;;;;;;8.20;4.60;;;;;;;13.47;72.74;96477.63;5039440;28;20025;-78
2021/06/15 04:21:53;;;;;;;7.63;4.33;;;;;;;13.38;73.07;96466.28;5009567;28;20490;-78
2021/06/15 04:24:23;;;;;;;6.67;4.17;;;;;;;13.53;72.97;96478.75;5010621;28;20100;-77
2021/06/15 04:26:50;;;;;;;8.70;5.10;;;;;;;13.54;73.84;96478.56;5001268;28;20037;-77
2021/06/15 04:29:16;;;;;;;10.90;5.27;;;;;;;13.60;73.60;96485.00;5005296;28;20025;-78
2021/06/15 04:31:43;;;;;;;8.43;4.53;;;;;;;13.58;73.58;96479.06;5036099;28;20040;-78
2021/06/15 04:34:17;;;;;;;11.30;4.70;;;;;;;13.71;73.75;96484.59;4995447;28;20033;-78
2021/06/15 04:36:44;;;;;;;7.57;4.37;;;;;;;13.66;73.62;96479.03;5020181;28;20035;-78
2021/06/15 04:39:15;;;;;;;7.00;4.23;;;;;;;13.79;72.49;96479.31;4994727;28;20051;-78
2021/06/15 04:41:48;;;;;;;8.57;4.40;;;;;;;13.99;71.95;96476.22;5019323;28;20059;-78
2021/06/15 04:44:24;;;;;;;6.32;4.07;;;;;;;14.04;72.32;96477.31;5009899;28;20044;-78
2021/06/15 04:46:54;;;;;;;6.87;3.80;;;;;;;13.95;71.73;96475.75;5012373;28;20554;-77
2021/06/15 04:50:03;;;;;;;11.00;4.50;;;;;;;14.17;71.11;96479.41;4992543;28;20082;-78
2021/06/15 04:52:31;;;;;;;7.20;3.97;;;;;;;14.26;70.70;96473.06;5025012;28;20124;-78
2021/06/15 04:55:00;;;;;;;8.27;4.40;;;;;;;14.21;70.45;96485.16;5019431;28;20635;-78
2021/06/15 04:57:29;;;;;;;8.97;4.60;;;;;;;14.34;70.33;96485.41;5013916;28;20099;-78
2021/06/15 04:59:59;;;;;;;8.83;4.13;;;;;;;14.22;69.14;96487.66;5000730;28;20037;-78
2021/06/15 05:02:27;;;;;;;9.70;4.50;;;;;;;14.56;67.85;96489.91;5011048;28;20041;-78
2021/06/15 05:04:53;;;;;;;8.77;4.53;;;;;;;14.80;67.03;96493.34;5015322;28;20136;-77
2021/06/15 05:07:21;;;;;;;7.17;3.47;;;;;;;14.91;67.36;96497.38;5017478;28;20048;-78
2021/06/15 05:09:52;;;;;;;8.50;4.00;;;;;;;15.07;66.74;96497.22;5033674;28;20029;-78
2021/06/15 05:12:20;;;;;;;7.53;3.93;;;;;;;15.26;65.04;96496.69;5002611;28;20042;-78
2021/06/15 05:14:46;;;;;;;8.27;4.20;;;;;;;15.38;65.04;96506.84;5007258;28;20083;-78
2021/06/15 05:17:14;;;;;;;8.00;4.17;;;;;;;15.45;66.05;96492.66;5022591;28;20044;-78
2021/06/15 05:19:40;;;;;;;6.50;3.50;;;;;;;15.70;65.04;96498.53;5025841;28;20028;-78
2021/06/15 05:22:22;;;;;;;8.90;3.13;;;;;;;15.92;64.40;96502.06;4996769;28;20065;-78
2021/06/15 05:24:49;;;;;;;6.50;3.53;;;;;;;16.11;62.80;96498.00;5011890;28;20530;-78
2021/06/15 05:27:17;;;;;;;7.97;3.77;;;;;;;16.31;62.13;96497.41;5014282;28;20037;-78
2021/06/15 05:29:43;;;;;;;9.13;4.23;;;;;;;16.43;61.69;96498.53;4995137;28;20037;-78
2021/06/15 05:32:10;;;;;;;9.33;3.63;;;;;;;16.56;60.80;96498.66;4993716;28;20060;-78
2021/06/15 05:34:36;;;;;;;5.60;3.30;;;;;;;16.83;60.27;96491.75;5038577;28;20033;-78
2021/06/15 05:37:04;;;;;;;7.97;3.37;;;;;;;16.96;60.35;96499.84;5012887;28;20025;-78
2021/06/15 05:39:30;;;;;;;8.73;3.97;;;;;;;17.29;61.01;96493.13;5013646;28;20530;-78
2021/06/15 05:41:56;;;;;;;7.23;3.00;;;;;;;17.48;59.83;96486.28;4994323;28;20112;-78
2021/06/15 05:44:22;;;;;;;9.40;3.60;;;;;;;17.64;59.37;96497.44;5040335;28;20116;-78
2021/06/15 05:46:47;;;;;;;8.67;3.40;;;;;;;17.84;58.73;96502.03;5010669;28;20116;-78
2021/06/15 05:49:13;;;;;;;6.67;3.53;;;;;;;17.90;59.05;96493.25;5020639;28;20380;-78
2021/06/15 05:51:39;;;;;;;8.33;3.53;;;;;;;18.38;58.35;96488.72;4994321;28;20036;-79
2021/06/15 05:54:06;;;;;;;8.10;3.30;;;;;;;18.64;55.47;96488.94;5000744;28;20098;-78
2021/06/15 05:56:32;;;;;;;7.53;3.50;;;;;;;18.80;55.12;96485.91;4994707;28;20025;-78
2021/06/15 05:58:58;;;;;;;6.30;3.28;;;;;;;19.01;55.50;96491.03;4999710;28;20060;-79
2021/06/15 06:01:25;;;;;;;7.80;3.90;;;;;;;19.30;54.55;96484.44;5013939;28;20025;-78
2021/06/15 06:04:26;;;;;;;6.38;4.07;;;;;;;19.61;52.71;96490.09;5014950;28;20037;-78
2021/06/15 06:09:27;;;;;;;6.05;3.67;;;;;;;20.39;50.35;96492.69;5011190;28;20033;-78
2021/06/15 06:11:53;;;;;;;7.38;3.80;;;;;;;19.93;49.21;96491.06;5004952;28;20729;-79
2021/06/15 06:14:19;;;;;;;13.95;4.43;;;;;;;20.00;51.51;96494.53;5009244;28;20549;-78
2021/06/15 06:16:45;;;;;;;6.45;3.17;;;;;;;20.79;50.27;96489.75;5016114;28;20039;-78
2021/06/15 06:19:15;;;;;;;8.73;3.67;;;;;;;21.35;50.13;96494.25;4994307;28;20030;-78
2021/06/15 06:21:43;;;;;;;6.85;3.22;;;;;;;20.78;52.46;96494.28;5015598;28;20523;-79
2021/06/15 06:24:10;;;;;;;8.27;3.03;;;;;;;21.51;48.91;96484.84;5008024;28;20187;-78
2021/06/15 06:26:36;;;;;;;8.57;3.20;;;;;;;22.08;47.81;96480.06;5016509;28;20095;-82
2021/06/15 06:29:02;;;;;;;8.48;2.92;;;;;;;21.78;48.22;96491.53;5017278;28;20091;-78
2021/06/15 06:31:28;;;;;;;6.68;3.08;;;;;;;21.98;47.16;96485.13;5021648;28;20526;-79
2021/06/15 06:33:54;;;;;;;6.53;3.42;;;;;;;22.72;45.51;96483.09;5010461;28;20068;-78
2021/06/15 06:36:20;;;;;;;6.55;3.28;;;;;;;22.98;45.89;96481.91;5020586;28;20636;-78
2021/06/15 06:38:49;;;;;;;6.22;3.20;;;;;;;23.00;43.62;96490.50;5017630;28;20120;-78
2021/06/15 06:41:19;;;;;;;6.32;3.22;;;;;;;23.17;40.94;96490.66;5037302;28;20037;-78
2021/06/15 06:43:45;;;;;;;8.68;3.03;;;;;;;23.49;39.16;96493.81;5010518;28;20041;-78
2021/06/15 06:46:11;;;;;;;9.10;2.83;;;;;;;22.80;41.27;96491.63;5016992;28;20072;-78
2021/06/15 06:48:37;;;;;;;8.20;4.07;;;;;;;24.17;40.28;96493.09;5027099;28;20037;-78
2021/06/15 06:51:03;;;;;;;4.18;2.92;;;;;;;24.80;39.01;96494.00;5020148;28;20031;-78
2021/06/15 06:53:29;;;;;;;4.68;2.60;;;;;;;25.04;39.12;96491.19;5001792;28;20123;-78
2021/06/15 06:55:55;;;;;;;7.45;2.40;;;;;;;24.45;39.99;96492.34;5042830;28;20022;-78
2021/06/15 06:58:21;;;;;;;5.32;2.15;;;;;;;25.25;38.18;96489.66;5012278;28;20029;-79
2021/06/15 07:00:47;;;;;;;8.70;2.75;;;;;;;24.84;39.21;96481.72;5041660;28;20025;-78
2021/06/15 07:03:13;;;;;;;5.82;2.20;;;;;;;24.92;39.79;96483.19;5030157;28;20034;-78
2021/06/15 07:05:38;;;;;;;6.35;2.70;;;;;;;25.78;37.59;96483.66;5032880;28;20021;-79
2021/06/15 07:08:04;;;;;;;7.40;2.47;;;;;;;26.98;35.74;96472.88;5003242;28;20029;-79
2021/06/15 07:10:30;;;;;;;39.92;27.13;;;;;;;26.81;35.61;96477.56;5017606;28;20021;-79
2021/06/15 07:12:56;;;;;;;8.43;4.72;;;;;;;27.32;34.18;96467.19;5013455;28;20037;-79
2021/06/15 07:15:22;;;;;;;4.72;2.13;;;;;;;27.21;32.60;96479.00;5025603;28;20390;-79
2021/06/15 07:17:48;;;;;;;4.65;2.42;;;;;;;27.18;31.38;96468.72;4989987;28;20037;-79
2021/06/15 07:20:14;;;;;;;7.80;4.40;;;;;;;27.41;33.25;96473.75;5017506;28;20018;-79
2021/06/15 07:22:40;;;;;;;5.63;2.30;;;;;;;26.60;32.94;96468.50;5002162;28;20037;-79
2021/06/15 07:25:06;;;;;;;5.60;2.08;;;;;;;27.33;32.04;96468.84;5025098;28;20125;-79
2021/06/15 07:27:32;;;;;;;7.18;2.53;;;;;;;28.04;31.82;96464.91;5004264;28;20036;-79
2021/06/15 07:29:58;;;;;;;6.78;2.20;;;;;;;28.64;31.51;96480.50;5017580;28;20034;-79
2021/06/15 07:32:24;;;;;;;7.13;2.47;;;;;;;29.06;28.79;96474.06;5022950;28;20036;-79
2021/06/15 07:34:50;;;;;;;5.75;1.95;;;;;;;29.71;28.73;96465.31;5003640;28;20104;-79
2021/06/15 07:37:16;;;;;;;5.38;2.22;;;;;;;29.47;29.28;96470.50;5025815;28;20025;-79
2021/06/15 07:39:42;;;;;;;5.70;2.13;;;;;;;30.21;27.41;96474.38;5020296;28;20014;-79
2021/06/15 07:42:08;;;;;;;4.68;2.20;;;;;;;29.30;28.92;96477.03;5006587;28;20056;-79
2021/06/15 07:44:34;;;;;;;6.35;2.35;;;;;;;29.95;28.78;96465.53;5000030;28;20041;-80
2021/06/15 07:47:01;;;;;;;6.38;2.88;;;;;;;30.28;27.42;96466.72;5011436;28;20036;-80
2021/06/15 07:49:30;;;;;;;7.00;1.95;;;;;;;30.28;29.08;96464.84;5020403;28;20056;-80
2021/06/15 07:51:57;;;;;;;5.03;2.20;;;;;;;30.80;27.75;96459.13;5018309;28;20037;-80
2021/06/15 07:54:23;;;;;;;7.65;2.65;;;;;;;29.64;29.70;96471.03;5004724;28;20640;-80
2021/06/15 07:56:49;;;;;;;5.20;2.08;;;;;;;29.80;29.52;96464.47;4998584;28;20116;-80
2021/06/15 07:59:15;;;;;;;7.28;2.22;;;;;;;28.65;32.16;96481.31;5021861;28;20021;-80
2021/06/15 08:01:40;;;;;;;6.70;2.25;;;;;;;30.77;29.34;96460.50;5016679;28;20036;-80
2021/06/15 08:04:07;;;;;;;5.85;2.17;;;;;;;31.06;28.20;96465.97;5000129;28;20021;-80
2021/06/15 08:06:36;;;;;;;5.65;2.50;;;;;;;31.81;26.00;96462.81;5010967;28;20043;-80
2021/06/15 08:09:02;;;;;;;4.60;2.40;;;;;;;32.29;26.24;96461.97;5011607;28;20033;-80
2021/06/15 08:11:27;;;;;;;4.80;1.92;;;;;;;32.86;25.43;96470.97;5003001;28;20033;-80
2021/06/15 08:13:53;;;;;;;5.68;2.25;;;;;;;32.90;24.88;96466.56;5003318;28;20432;-80
2021/06/15 08:16:20;;;;;;;5.03;2.17;;;;;;;32.51;25.65;96467.69;5014401;28;20037;-80
2021/06/15 08:18:45;;;;;;;3.25;1.90;;;;;;;32.11;26.21;96461.66;5011664;28;20033;-80
2021/06/15 08:21:13;;;;;;;5.32;2.30;;;;;;;33.17;23.92;96470.53;5010970;28;20053;-80
2021/06/15 08:23:39;;;;;;;7.57;2.50;;;;;;;32.61;24.30;96464.81;4999470;28;20585;-82
2021/06/15 08:26:05;;;;;;;9.00;2.25;;;;;;;33.63;24.28;96464.25;5005394;28;20024;-80
2021/06/15 08:28:31;;;;;;;6.05;2.20;;;;;;;32.61;23.78;96459.38;5000858;28;20024;-80
2021/06/15 08:30:57;;;;;;;5.78;2.00;;;;;;;32.95;23.78;96458.28;5004900;28;20032;-80
2021/06/15 08:33:24;;;;;;;3.53;1.80;;;;;;;34.65;22.27;96460.28;5005452;28;20021;-78
2021/06/15 08:35:50;;;;;;;4.25;1.48;;;;;;;34.48;21.40;96460.09;5027402;28;20036;-80
2021/06/15 08:38:18;;;;;;;3.95;1.75;;;;;;;34.66;21.00;96458.34;5025133;28;20032;-80
2021/06/15 08:40:46;;;;;;;3.97;1.80;;;;;;;34.10;20.82;96459.53;5004162;28;20555;-80
2021/06/15 08:43:12;;;;;;;4.97;2.00;;;;;;;32.91;22.00;96461.91;5005269;28;20028;-80
2021/06/15 08:45:40;;;;;;;5.03;2.20;;;;;;;32.99;22.34;96475.69;5012361;28;20281;-80
2021/06/15 08:48:06;;;;;;;7.10;4.18;;;;;;;34.50;20.47;96466.84;5036205;28;20459;-80
2021/06/15 08:50:31;;;;;;;6.57;3.80;;;;;;;35.01;20.38;96473.09;5009631;28;20040;-80
2021/06/15 08:52:57;;;;;;;3.58;1.88;;;;;;;31.87;23.18;96472.56;5011741;28;20036;-80
2021/06/15 08:55:29;;;;;;;4.88;1.88;;;;;;;31.69;23.29;96476.81;5018957;28;20040;-80
2021/06/15 08:58:21;;;;;;;5.43;1.95;;;;;;;32.45;23.54;96482.47;5018732;28;20029;-80
2021/06/15 09:00:46;;;;;;;5.10;2.08;;;;;;;31.53;23.84;96469.91;5019289;28;20021;-80
2021/06/15 09:03:14;;;;;;;3.97;1.70;;;;;;;34.67;21.40;96462.69;4997526;28;20055;-80
2021/06/15 09:05:41;;;;;;;5.43;1.88;;;;;;;31.84;24.62;96472.31;5018474;28;20116;-80
2021/06/15 09:08:12;;;;;;;4.25;2.20;;;;;;;31.52;25.40;96479.16;4999635;28;20088;-81
2021/06/15 09:10:43;;;;;;;3.97;1.70;;;;;;;31.28;25.02;96475.56;4998958;28;20040;-81
2021/06/15 09:13:33;;;;;;;4.37;1.83;;;;;;;33.49;21.94;96467.78;4999830;28;20037;-81
2021/06/15 09:16:00;;;;;;;5.70;2.30;;;;;;;31.38;24.62;96472.78;5002988;28;21067;-81
2021/06/15 09:18:30;;;;;;;8.05;3.17;;;;;;;32.05;23.50;96473.69;5024614;28;20013;-81
2021/06/15 09:21:00;;;;;;;5.00;1.92;;;;;;;33.25;21.65;96473.34;4991748;28;20418;-80
2021/06/15 09:23:34;;;;;;;7.40;2.13;;;;;;;32.87;22.75;96472.59;5001675;28;20834;-80
2021/06/15 09:26:00;;;;;;;5.32;2.15;;;;;;;33.49;21.44;96473.22;5008287;28;20402;-80
2021/06/15 09:28:26;;;;;;;7.45;3.38;;;;;;;34.07;21.86;96471.06;5006526;28;20025;-80
2021/06/15 09:30:56;;;;;;;7.75;2.30;;;;;;;34.91;19.89;96467.84;5020139;28;20033;-80
2021/06/15 09:33:42;;;;;;;4.40;2.42;;;;;;;33.44;21.87;96473.31;5008149;28;20431;-80
2021/06/15 09:36:27;;;;;;;4.45;1.95;;;;;;;34.18;21.17;96467.81;5011453;28;20115;-80
2021/06/15 09:38:58;;;;;;;6.18;1.80;;;;;;;33.86;22.25;96470.63;5016366;28;20052;-80
2021/06/15 09:41:42;;;;;;;2.72;1.55;;;;;;;35.87;18.26;96467.31;5005647;28;20037;-80
2021/06/15 09:44:18;;;;;;;4.72;1.70;;;;;;;32.31;22.44;96482.34;5020583;28;20048;-81
2021/06/15 09:46:50;;;;;;;3.97;2.20;;;;;;;33.90;21.44;96477.91;5002689;28;20037;-80
2021/06/15 09:49:50;;;;;;;;;;;;;;;33.64;21.50;96472.16;5015700;28;20042;-80
2021/06/15 09:52:15;;;;;;;5.00;2.17;;;;;;;32.98;22.37;96481.44;4993244;28;19913;-81
2021/06/15 09:54:53;;;;;;;2.85;1.85;;;;;;;34.88;20.44;96468.50;5006967;28;20549;-80
2021/06/15 09:57:31;;;;;;;3.70;1.90;;;;;;;34.74;19.88;96473.97;5018883;28;20077;-80
2021/06/15 09:59:58;;;;;;;4.50;1.88;;;;;;;34.33;20.84;96465.88;5018008;28;20818;-80
2021/06/15 10:02:25;;;;;;;2.63;1.67;;;;;;;32.97;22.20;96477.13;5001035;28;20111;-81
2021/06/15 10:04:51;;;;;;;6.80;4.18;;;;;;;34.87;20.62;96472.31;5035813;28;20033;-81
2021/06/15 10:07:31;;;;;;;4.85;1.80;;;;;;;34.15;20.66;96473.91;5035987;28;20017;-80
2021/06/15 10:09:58;;;;;;;4.03;1.77;;;;;;;34.43;21.07;96474.66;5008549;28;20564;-80
2021/06/15 10:12:25;;;;;;;4.60;2.13;;;;;;;31.74;25.79;96484.09;5021485;28;20032;-80
2021/06/15 10:14:56;;;;;;;4.63;2.08;;;;;;;34.07;22.18;96481.97;5018796;28;20043;-80
2021/06/15 10:17:24;;;;;;;5.28;2.03;;;;;;;32.39;24.11;96489.03;5018061;28;20030;-80
2021/06/15 10:19:50;;;;;;;3.47;1.60;;;;;;;32.62;25.35;96481.94;5002112;28;20107;-80
2021/06/15 10:22:16;;;;;;;4.15;1.95;;;;;;;33.46;23.19;96484.69;4998535;28;20029;-80
2021/06/15 10:24:41;;;;;;;5.07;1.83;;;;;;;34.85;21.56;96477.31;5023328;28;20417;-80
2021/06/15 10:27:10;;;;;;;3.85;1.88;;;;;;;35.97;21.06;96470.91;5037264;28;20025;-80
2021/06/15 10:29:38;;;;;;;3.78;1.52;;;;;;;35.70;21.07;96470.00;5039052;28;20568;-81
2021/06/15 10:32:14;;;;;;;5.55;1.98;;;;;;;34.06;22.33;96474.91;5003729;28;20109;-80
2021/06/15 10:35:04;;;;;;;3.42;2.00;;;;;;;34.22;21.86;96476.22;5020270;28;20041;-80
2021/06/15 10:37:36;;;;;;;4.50;2.22;;;;;;;33.78;23.01;96475.69;5018854;28;20179;-80
2021/06/15 10:40:14;;;;;;;3.58;2.17;;;;;;;32.83;25.17;96477.00;5035150;28;20029;-80
2021/06/15 10:43:19;;;;;;;5.00;2.25;;;;;;;34.21;22.94;96472.69;4999440;28;20068;-79
2021/06/15 10:45:52;;;;;;;5.97;2.45;;;;;;;31.98;25.37;96465.09;5017626;28;20041;-80
2021/06/15 10:48:17;;;;;;;2.85;1.80;;;;;;;31.67;25.20;96470.03;5018916;28;20126;-80
2021/06/15 10:50:54;;;;;;;4.45;1.88;;;;;;;32.72;23.15;96475.56;5018282;28;20059;-80
2021/06/15 10:53:36;;;;;;;4.90;2.08;;;;;;;33.28;22.82;96464.59;5020501;28;20029;-80
2021/06/15 10:56:05;;;;;;;5.47;2.33;;;;;;;35.13;21.58;96456.94;5044331;28;20060;-80
2021/06/15 10:58:44;;;;;;;4.70;2.20;;;;;;;34.44;22.58;96454.44;5003022;28;20018;-80
2021/06/15 11:01:14;;;;;;;5.30;2.03;;;;;;;34.42;23.03;96456.66;5018922;28;20056;-79
2021/06/15 11:03:49;;;;;;;4.13;2.45;;;;;;;33.17;24.24;96454.16;5020667;28;20037;-80
2021/06/15 11:06:15;;;;;;;5.97;2.17;;;;;;;34.35;22.91;96452.75;5023302;28;20483;-81
2021/06/15 11:08:41;;;;;;;5.60;2.20;;;;;;;34.69;22.01;96455.81;5016495;28;20021;-80
2021/06/15 11:11:16;;;;;;;4.65;2.50;;;;;;;34.40;22.24;96450.69;5017310;28;20049;-80
2021/06/15 11:13:56;;;;;;;4.45;2.33;;;;;;;34.56;22.08;96451.19;5013966;28;20036;-81
2021/06/15 11:16:40;;;;;;;5.88;2.13;;;;;;;33.30;23.69;96459.66;5018116;28;20039;-81
2021/06/15 11:19:17;;;;;;;3.63;2.10;;;;;;;31.92;24.09;96460.78;5012945;28;20040;-81
2021/06/15 11:22:08;;;;;;;4.72;1.92;;;;;;;32.90;24.74;96458.38;5018520;28;20080;-82
2021/06/15 11:24:44;;;;;;;4.38;2.28;;;;;;;33.13;24.59;96453.13;5016046;28;20375;-81
2021/06/15 11:27:11;;;;;;;3.88;1.85;;;;;;;33.98;22.87;96446.41;5013208;28;20102;-81
2021/06/15 11:29:38;;;;;;;5.93;2.42;;;;;;;33.08;24.18;96454.84;5032704;28;20080;-81
2021/06/15 11:32:18;;;;;;;3.63;1.95;;;;;;;33.66;23.07;96442.66;5007873;28;20037;-82
2021/06/15 11:34:53;;;;;;;5.70;2.03;;;;;;;35.55;21.59;96432.13;5028030;28;20041;-81
2021/06/15 11:37:23;;;;;;;6.07;2.45;;;;;;;34.03;22.46;96444.38;5009471;28;20431;-80
2021/06/15 11:39:50;;;;;;;4.80;2.60;;;;;;;31.05;26.74;96445.31;5015883;28;20115;-80
2021/06/15 11:42:29;;;;;;;7.38;2.60;;;;;;;32.79;23.92;96452.28;5002761;28;20033;-81
2021/06/15 11:45:30;;;;;;;4.85;1.80;;;;;;;34.61;21.45;96439.31;5015665;28;20041;-80
2021/06/15 11:48:18;;;;;;;4.95;1.80;;;;;;;34.68;23.07;96442.47;5015391;28;20491;-81
2021/06/15 11:50:46;;;;;;;6.78;2.15;;;;;;;33.22;23.66;96437.72;5026387;28;20128;-80
2021/06/15 11:53:15;;;;;;;3.55;1.90;;;;;;;34.80;22.66;96433.69;5030183;28;20024;-80